createdAt,value
2022-10-05T00:00:01.010Z,100141.75
2022-10-05T00:00:35.748Z,100141.50
2022-10-05T00:01:23.026Z,100143.09
2022-10-05T00:01:57.740Z,100138.00
2022-10-05T00:02:32.650Z,100142.28
2022-10-05T00:03:11.379Z,100144.97
2022-10-05T00:03:46.082Z,100131.00
2022-10-05T00:04:20.087Z,100140.69
2022-10-05T00:04:54.371Z,100140.38
2022-10-05T00:05:32.253Z,100143.06
2022-10-05T00:06:05.104Z,100143.31
2022-10-05T00:06:37.236Z,100144.13
2022-10-05T00:07:16.332Z,100144.94
2022-10-05T00:07:48.871Z,100140.38
2022-10-05T00:08:28.126Z,100140.38
2022-10-05T00:09:01.395Z,100142.75
2022-10-05T00:09:34.417Z,100154.31
2022-10-05T00:10:16.767Z,100147.88
2022-10-05T00:10:50.069Z,100149.19
2022-10-05T00:11:22.191Z,100147.31
2022-10-05T00:11:56.959Z,100145.72
2022-10-05T00:12:30.003Z,100163.72
2022-10-05T00:13:02.207Z,100147.59
2022-10-05T00:13:37.185Z,100153.78
2022-10-05T00:14:18.709Z,100145.97
2022-10-05T00:14:55.873Z,100151.88
2022-10-05T00:15:28.160Z,100150.72
2022-10-05T00:16:09.436Z,100157.72
2022-10-05T00:16:44.671Z,100153.41
2022-10-05T00:17:20.341Z,100154.50
2022-10-05T00:17:52.467Z,100151.00
2022-10-05T00:18:27.163Z,100148.03
2022-10-05T00:19:00.119Z,100154.22
2022-10-05T00:19:35.185Z,100156.09
2022-10-05T00:20:19.338Z,100154.50
2022-10-05T00:20:51.495Z,100161.75
2022-10-05T00:21:26.224Z,100149.94
2022-10-05T00:22:02.989Z,100159.06
2022-10-05T00:22:35.218Z,100152.06
2022-10-05T00:23:14.106Z,100167.13
2022-10-05T00:23:51.820Z,100165.25
2022-10-05T00:24:24.021Z,100154.75
2022-10-05T00:24:59.270Z,100152.88
2022-10-05T00:25:34.038Z,100159.06
2022-10-05T00:26:14.209Z,100175.19
2022-10-05T00:26:46.840Z,100179.50
2022-10-05T00:27:23.986Z,100171.44
2022-10-05T00:27:57.958Z,100155.31
2022-10-05T00:28:31.018Z,100155.56
2022-10-05T00:29:17.413Z,100185.66
2022-10-05T00:29:51.679Z,100172.97
2022-10-05T00:30:28.636Z,100164.91
2022-10-05T00:31:01.202Z,100164.63
2022-10-05T00:31:36.285Z,100167.88
2022-10-05T00:32:12.701Z,100167.88
2022-10-05T00:32:45.726Z,100161.44
2022-10-05T00:33:17.789Z,100167.88
2022-10-05T00:33:52.612Z,100182.38
2022-10-05T00:34:24.866Z,100164.91
2022-10-05T00:34:57.897Z,100153.34
2022-10-05T00:35:32.621Z,100164.09
2022-10-05T00:36:07.271Z,100179.16
2022-10-05T00:36:40.292Z,100167.31
2022-10-05T00:37:17.398Z,100174.88
2022-10-05T00:37:54.176Z,100166.78
2022-10-05T00:38:28.671Z,100166.78
2022-10-05T00:39:06.314Z,100175.06
2022-10-05T00:39:40.729Z,100182.91
2022-10-05T00:40:29.547Z,100178.56
2022-10-05T00:41:09.815Z,100167.03
2022-10-05T00:41:55.637Z,100175.06
2022-10-05T00:42:41.633Z,100182.09
2022-10-05T00:43:34.311Z,100178.81
2022-10-05T00:44:23.930Z,100180.97
2022-10-05T00:45:03.004Z,100184.47
2022-10-05T00:45:42.118Z,100179.63
2022-10-05T00:46:20.870Z,100198.19
2022-10-05T00:46:57.747Z,100181.25
2022-10-05T00:47:42.758Z,100181.84
2022-10-05T00:48:25.497Z,100202.25
2022-10-05T00:49:09.625Z,100178.06
2022-10-05T00:50:04.247Z,100194.19
2022-10-05T00:51:03.561Z,100215.13
2022-10-05T00:51:37.696Z,100206.00
2022-10-05T00:52:23.661Z,100221.34
2022-10-05T00:53:05.151Z,100192.59
2022-10-05T00:53:46.541Z,100203.34
2022-10-05T00:54:30.051Z,100195.84
2022-10-05T00:55:10.496Z,100194.81
2022-10-05T00:55:49.335Z,100193.69
2022-10-05T00:56:44.276Z,100190.72
2022-10-05T00:57:33.975Z,100187.00
2022-10-05T00:58:17.113Z,100202.88
2022-10-05T00:58:58.492Z,100202.03
2022-10-05T00:59:49.273Z,100198.31
2022-10-05T01:00:25.462Z,100202.53
2022-10-05T01:01:12.144Z,100202.88
2022-10-05T01:01:55.292Z,100219.22
2022-10-05T01:02:38.148Z,100203.09
2022-10-05T01:03:18.762Z,100190.50
2022-10-05T01:04:02.839Z,100218.16
2022-10-05T01:04:46.166Z,100198.78
2022-10-05T01:05:35.852Z,100195.28
2022-10-05T01:06:16.745Z,100220.56
2022-10-05T01:07:04.900Z,100201.19
2022-10-05T01:07:44.825Z,100239.84
2022-10-05T01:08:31.203Z,100212.97
2022-10-05T01:09:15.508Z,100197.69
2022-10-05T01:09:56.600Z,100219.19
2022-10-05T01:10:35.308Z,100231.31
2022-10-05T01:11:17.525Z,100232.91
2022-10-05T01:11:56.297Z,100227.03
2022-10-05T01:12:37.603Z,100198.03
2022-10-05T01:13:24.147Z,100222.22
2022-10-05T01:14:04.104Z,100248.84
2022-10-05T01:14:41.459Z,100221.41
2022-10-05T01:15:23.802Z,100231.91
2022-10-05T01:16:04.342Z,100233.53
2022-10-05T01:16:49.506Z,100215.22
2022-10-05T01:17:28.165Z,100252.03
2022-10-05T01:18:13.056Z,100227.28
2022-10-05T01:18:54.704Z,100246.91
2022-10-05T01:19:51.577Z,100240.72
2022-10-05T01:20:34.594Z,100235.59
2022-10-05T01:21:14.714Z,100237.22
2022-10-05T01:21:53.611Z,100258.47
2022-10-05T01:22:43.989Z,100235.09
2022-10-05T01:23:49.716Z,100228.63
2022-10-05T01:24:50.826Z,100233.41
2022-10-05T01:25:35.073Z,100236.09
2022-10-05T01:26:35.992Z,100253.84
2022-10-05T01:27:21.610Z,100252.22
2022-10-05T01:28:03.148Z,100254.38
2022-10-05T01:28:42.344Z,100249.25
2022-10-05T01:29:21.597Z,100238.25
2022-10-05T01:30:02.889Z,100282.84
2022-10-05T01:30:44.818Z,100243.34
2022-10-05T01:31:26.158Z,100237.44
2022-10-05T01:32:08.208Z,100249.00
2022-10-05T01:32:51.249Z,100259.47
2022-10-05T01:33:29.235Z,100261.09
2022-10-05T01:34:11.449Z,100242.53
2022-10-05T01:34:52.602Z,100247.91
2022-10-05T01:35:43.785Z,100260.53
2022-10-05T01:36:25.030Z,100257.31
2022-10-05T01:37:04.562Z,100264.31
2022-10-05T01:37:48.918Z,100251.13
2022-10-05T01:38:31.495Z,100268.28
2022-10-05T01:39:14.173Z,100262.66
2022-10-05T01:39:55.566Z,100273.66
2022-10-05T01:40:33.844Z,100270.50
2022-10-05T01:41:20.815Z,100266.19
2022-10-05T01:42:02.183Z,100279.59
2022-10-05T01:42:46.571Z,100262.66
2022-10-05T01:43:33.028Z,100266.41
2022-10-05T01:44:13.388Z,100279.59
2022-10-05T01:44:49.606Z,100264.25
2022-10-05T01:45:36.738Z,100272.53
2022-10-05T01:46:20.826Z,100281.66
2022-10-05T01:47:03.257Z,100333.78
2022-10-05T01:47:46.584Z,100316.56
2022-10-05T01:48:25.455Z,100262.63
2022-10-05T01:49:17.907Z,100266.88
2022-10-05T01:50:00.334Z,100245.91
2022-10-05T01:50:43.900Z,100290.22
2022-10-05T01:51:22.590Z,100274.69
2022-10-05T01:52:11.048Z,100287.59
2022-10-05T01:52:55.066Z,100282.78
2022-10-05T01:53:37.631Z,100274.72
2022-10-05T01:54:25.393Z,100320.38
2022-10-05T01:55:12.760Z,100297.03
2022-10-05T01:55:55.406Z,100319.34
2022-10-05T01:56:34.995Z,100290.34
2022-10-05T01:57:20.911Z,100294.03
2022-10-05T01:58:07.847Z,100270.91
2022-10-05T01:58:51.236Z,100286.47
2022-10-05T01:59:34.705Z,100280.28
2022-10-05T02:00:13.016Z,100324.91
2022-10-05T02:00:58.051Z,100297.22
2022-10-05T02:01:36.576Z,100323.59
2022-10-05T02:02:15.690Z,100293.78
2022-10-05T02:02:51.177Z,100282.22
2022-10-05T02:03:27.606Z,100283.84
2022-10-05T02:04:08.772Z,100316.63
2022-10-05T02:05:03.241Z,100285.72
2022-10-05T02:05:42.250Z,100288.91
2022-10-05T02:06:21.532Z,100327.31
2022-10-05T02:06:54.918Z,100318.22
2022-10-05T02:07:37.439Z,100297.84
2022-10-05T02:08:14.638Z,100270.16
2022-10-05T02:08:50.740Z,100315.59
2022-10-05T02:09:29.834Z,100286.28
2022-10-05T02:10:06.659Z,100292.16
2022-10-05T02:10:45.097Z,100321.78
2022-10-05T02:11:19.862Z,100309.69
2022-10-05T02:11:59.770Z,100293.03
2022-10-05T02:12:37.963Z,100299.22
2022-10-05T02:13:19.562Z,100333.34
2022-10-05T02:13:59.202Z,100326.09
2022-10-05T02:14:38.950Z,100342.22
2022-10-05T02:15:16.029Z,100306.47
2022-10-05T02:15:54.782Z,100344.09
2022-10-05T02:16:35.475Z,100330.38
2022-10-05T02:17:14.077Z,100299.47
2022-10-05T02:17:50.595Z,100306.16
2022-10-05T02:18:31.087Z,100312.31
2022-10-05T02:19:14.686Z,100334.97
2022-10-05T02:19:55.367Z,100317.69
2022-10-05T02:20:32.722Z,100305.66
2022-10-05T02:21:05.845Z,100319.41
2022-10-05T02:21:41.191Z,100319.63
2022-10-05T02:22:20.290Z,100325.81
2022-10-05T02:22:55.290Z,100323.72
2022-10-05T02:23:36.050Z,100334.16
2022-10-05T02:24:13.393Z,100332.53
2022-10-05T02:24:52.283Z,100330.59
2022-10-05T02:25:33.386Z,100328.66
2022-10-05T02:26:09.050Z,100330.28
2022-10-05T02:26:44.830Z,100312.28
2022-10-05T02:27:23.483Z,100322.22
2022-10-05T02:28:03.012Z,100311.22
2022-10-05T02:28:41.720Z,100310.09
2022-10-05T02:29:20.406Z,100340.44
2022-10-05T02:29:58.382Z,100312.78
2022-10-05T02:30:34.530Z,100326.72
2022-10-05T02:31:11.268Z,100318.66
2022-10-05T02:31:50.631Z,100341.19
2022-10-05T02:32:25.739Z,100324.03
2022-10-05T02:33:02.821Z,100319.19
2022-10-05T02:33:38.364Z,100322.16
2022-10-05T02:34:27.734Z,100340.13
2022-10-05T02:35:17.140Z,100350.31
2022-10-05T02:35:50.804Z,100309.94
2022-10-05T02:36:31.271Z,100336.03
2022-10-05T02:37:12.342Z,100322.25
2022-10-05T02:37:54.463Z,100364.44
2022-10-05T02:38:38.593Z,100334.91
2022-10-05T02:39:18.996Z,100325.75
2022-10-05T02:40:05.263Z,100330.06
2022-10-05T02:40:50.692Z,100350.75
2022-10-05T02:41:36.032Z,100319.56
2022-10-05T02:42:18.688Z,100332.22
2022-10-05T02:43:00.757Z,100327.06
2022-10-05T02:43:46.929Z,100323.34
2022-10-05T02:44:33.502Z,100348.56
2022-10-05T02:45:18.353Z,100321.13
2022-10-05T02:45:58.008Z,100329.47
2022-10-05T02:46:41.176Z,100342.06
2022-10-05T02:47:22.561Z,100347.97
2022-10-05T02:48:06.917Z,100343.69
2022-10-05T02:48:48.797Z,100318.94
2022-10-05T02:49:33.840Z,100338.81
2022-10-05T02:50:16.360Z,100339.84
2022-10-05T02:50:56.191Z,100328.88
2022-10-05T02:51:39.767Z,100352.22
2022-10-05T02:52:17.126Z,100338.00
2022-10-05T02:52:59.584Z,100345.81
2022-10-05T02:53:40.648Z,100351.41
2022-10-05T02:54:24.450Z,100338.25
2022-10-05T02:55:05.475Z,100340.44
2022-10-05T02:55:46.580Z,100338.81
2022-10-05T02:56:26.500Z,100335.88
2022-10-05T02:57:07.578Z,100336.13
2022-10-05T02:57:45.997Z,100329.38
2022-10-05T02:58:23.662Z,100333.94
2022-10-05T02:59:07.224Z,100338.00
2022-10-05T02:59:47.131Z,100349.00
2022-10-05T03:00:22.078Z,100357.28
2022-10-05T03:01:03.045Z,100361.59
2022-10-05T03:01:44.078Z,100358.91
2022-10-05T03:02:21.332Z,100340.94
2022-10-05T03:03:05.015Z,100341.50
2022-10-05T03:03:42.247Z,100351.41
2022-10-05T03:04:25.574Z,100346.03
2022-10-05T03:05:11.732Z,100344.44
2022-10-05T03:05:48.687Z,100348.72
2022-10-05T03:06:27.559Z,100335.50
2022-10-05T03:07:14.322Z,100344.91
2022-10-05T03:07:55.895Z,100332.31
2022-10-05T03:08:40.199Z,100342.53
2022-10-05T03:09:15.558Z,100332.31
2022-10-05T03:10:00.881Z,100335.00
2022-10-05T03:10:41.927Z,100346.53
2022-10-05T03:11:24.400Z,100340.38
2022-10-05T03:12:12.463Z,100341.41
2022-10-05T03:12:52.943Z,100376.09
2022-10-05T03:13:42.314Z,100350.28
2022-10-05T03:14:23.227Z,100369.34
2022-10-05T03:15:04.134Z,100354.03
2022-10-05T03:15:52.405Z,100349.47
2022-10-05T03:16:38.508Z,100341.69
2022-10-05T03:17:19.247Z,100351.59
2022-10-05T03:18:04.355Z,100349.72
2022-10-05T03:18:49.370Z,100348.34
2022-10-05T03:19:33.436Z,100360.94
2022-10-05T03:20:25.422Z,100368.75
2022-10-05T03:21:11.105Z,100367.94
2022-10-05T03:21:53.687Z,100353.47
2022-10-05T03:22:41.433Z,100371.22
2022-10-05T03:23:22.287Z,100374.72
2022-10-05T03:24:15.216Z,100367.94
2022-10-05T03:25:17.517Z,100385.13
2022-10-05T03:26:10.412Z,100375.19
2022-10-05T03:26:53.347Z,100397.25
2022-10-05T03:27:39.362Z,100375.25
2022-10-05T03:28:19.259Z,100380.63
2022-10-05T03:29:03.441Z,100382.50
2022-10-05T03:29:43.673Z,100391.97
2022-10-05T03:30:21.931Z,100386.59
2022-10-05T03:31:05.650Z,100389.81
2022-10-05T03:31:49.767Z,100384.22
2022-10-05T03:32:30.384Z,100400.09
2022-10-05T03:33:11.629Z,100393.63
2022-10-05T03:33:50.884Z,100386.41
2022-10-05T03:34:30.251Z,100356.84
2022-10-05T03:35:07.923Z,100390.72
2022-10-05T03:35:53.237Z,100380.22
2022-10-05T03:36:32.636Z,100360.28
2022-10-05T03:37:14.726Z,100349.53
2022-10-05T03:37:53.620Z,100363.78
2022-10-05T03:38:37.836Z,100379.38
2022-10-05T03:39:16.167Z,100376.72
2022-10-05T03:39:57.563Z,100373.78
2022-10-05T03:40:38.815Z,100368.41
2022-10-05T03:41:24.266Z,100380.78
2022-10-05T03:42:04.176Z,100385.56
2022-10-05T03:42:52.267Z,100371.34
2022-10-05T03:43:52.513Z,100372.16
2022-10-05T03:44:36.895Z,100360.28
2022-10-05T03:45:26.590Z,100375.09
2022-10-05T03:46:09.337Z,100369.72
2022-10-05T03:46:56.729Z,100394.94
2022-10-05T03:47:36.978Z,100379.66
2022-10-05T03:48:12.018Z,100395.78
2022-10-05T03:48:55.310Z,100393.41
2022-10-05T03:49:36.943Z,100386.16
2022-10-05T03:50:33.586Z,100396.09
2022-10-05T03:51:13.333Z,100387.22
2022-10-05T03:51:49.213Z,100390.72
2022-10-05T03:52:29.431Z,100382.88
2022-10-05T03:53:06.049Z,100376.22
2022-10-05T03:53:44.155Z,100392.06
2022-10-05T03:54:25.905Z,100380.03
2022-10-05T03:55:03.758Z,100386.47
2022-10-05T03:55:41.154Z,100384.38
2022-10-05T03:56:20.426Z,100394.28
2022-10-05T03:56:55.828Z,100394.28
2022-10-05T03:57:36.315Z,100400.47
2022-10-05T03:58:16.187Z,100396.16
2022-10-05T03:59:00.994Z,100381.09
2022-10-05T03:59:40.577Z,100386.72
2022-10-05T04:00:16.562Z,100398.03
2022-10-05T04:01:10.303Z,100376.78
2022-10-05T04:01:48.114Z,100394.75
2022-10-05T04:02:25.264Z,100395.34
2022-10-05T04:03:05.639Z,100396.47
2022-10-05T04:03:44.273Z,100393.19
2022-10-05T04:04:21.395Z,100415.19
2022-10-05T04:05:01.931Z,100414.16
2022-10-05T04:05:39.618Z,100388.91
2022-10-05T04:06:18.071Z,100394.53
2022-10-05T04:06:55.874Z,100403.41
2022-10-05T04:07:42.853Z,100399.41
2022-10-05T04:08:27.824Z,100398.56
2022-10-05T04:09:04.611Z,100403.47
2022-10-05T04:09:41.260Z,100403.22
2022-10-05T04:10:21.940Z,100399.47
2022-10-05T04:10:57.341Z,100404.59
2022-10-05T04:11:35.646Z,100393.03
2022-10-05T04:12:19.089Z,100409.16
2022-10-05T04:12:58.653Z,100403.56
2022-10-05T04:13:38.401Z,100418.84
2022-10-05T04:14:15.493Z,100397.06
2022-10-05T04:14:52.157Z,100390.34
2022-10-05T04:15:33.764Z,100402.97
2022-10-05T04:16:14.406Z,100406.97
2022-10-05T04:16:52.706Z,100399.47
2022-10-05T04:17:35.729Z,100402.97
2022-10-05T04:18:21.051Z,100402.16
2022-10-05T04:19:04.092Z,100420.13
2022-10-05T04:19:44.409Z,100410.22
2022-10-05T04:20:21.320Z,100394.09
2022-10-05T04:21:01.727Z,100410.78
2022-10-05T04:21:43.948Z,100409.16
2022-10-05T04:22:21.133Z,100414.22
2022-10-05T04:23:03.297Z,100400.22
2022-10-05T04:23:48.361Z,100410.41
2022-10-05T04:24:31.665Z,100398.03
2022-10-05T04:25:14.807Z,100402.81
2022-10-05T04:25:51.685Z,100412.50
2022-10-05T04:26:34.806Z,100417.06
2022-10-05T04:27:11.501Z,100399.09
2022-10-05T04:27:47.555Z,100416.00
2022-10-05T04:28:32.373Z,100418.19
2022-10-05T04:29:14.391Z,100419.50
2022-10-05T04:29:56.923Z,100411.47
2022-10-05T04:30:33.219Z,100421.63
2022-10-05T04:31:07.337Z,100412.50
2022-10-05T04:31:58.596Z,100429.44
2022-10-05T04:32:37.642Z,100414.66
2022-10-05T04:33:11.686Z,100416.44
2022-10-05T04:33:51.956Z,100409.44
2022-10-05T04:34:42.908Z,100401.06
2022-10-05T04:35:40.968Z,100406.66
2022-10-05T04:36:22.452Z,100426.50
2022-10-05T04:36:59.430Z,100423.03
2022-10-05T04:37:46.649Z,100432.97
2022-10-05T04:38:35.111Z,100417.09
2022-10-05T04:39:21.715Z,100427.00
2022-10-05T04:40:08.926Z,100423.28
2022-10-05T04:40:55.527Z,100441.03
2022-10-05T04:41:44.899Z,100434.84
2022-10-05T04:42:31.561Z,100431.09
2022-10-05T04:43:13.585Z,100438.06
2022-10-05T04:44:00.127Z,100435.97
2022-10-05T04:44:51.059Z,100429.78
2022-10-05T04:45:32.965Z,100442.38
2022-10-05T04:46:17.555Z,100442.38
2022-10-05T04:47:15.189Z,100439.94
2022-10-05T04:48:16.437Z,100443.78
2022-10-05T04:49:16.885Z,100455.59
2022-10-05T04:50:07.185Z,100439.47
2022-10-05T04:50:55.553Z,100451.25
2022-10-05T04:51:37.405Z,100459.09
2022-10-05T04:52:23.447Z,100452.41
2022-10-05T04:53:05.301Z,100456.47
2022-10-05T04:53:46.405Z,100440.91
2022-10-05T04:54:31.615Z,100450.59
2022-10-05T04:55:15.702Z,100457.03
2022-10-05T04:55:57.908Z,100454.13
2022-10-05T04:56:37.708Z,100453.59
2022-10-05T04:57:14.241Z,100448.25
2022-10-05T04:58:00.364Z,100461.44
2022-10-05T04:58:47.118Z,100461.44
2022-10-05T04:59:42.132Z,100470.31
2022-10-05T05:00:22.800Z,100460.34
2022-10-05T05:01:09.796Z,100465.25
2022-10-05T05:01:56.460Z,100476.00
2022-10-05T05:02:43.647Z,100479.72
2022-10-05T05:03:40.322Z,100482.91
2022-10-05T05:04:36.585Z,100481.84
2022-10-05T05:05:30.227Z,100456.06
2022-10-05T05:06:17.267Z,100501.13
2022-10-05T05:07:10.568Z,100478.28
2022-10-05T05:07:49.770Z,100486.81
2022-10-05T05:08:37.875Z,100484.94
2022-10-05T05:09:47.023Z,100469.56
2022-10-05T05:10:39.846Z,100501.53
2022-10-05T05:11:29.255Z,100484.63
2022-10-05T05:12:12.113Z,100487.88
2022-10-05T05:12:57.223Z,100495.94
2022-10-05T05:14:04.978Z,100491.13
2022-10-05T05:14:56.055Z,100498.13
2022-10-05T05:15:41.815Z,100481.78
2022-10-05T05:16:26.277Z,100485.28
2022-10-05T05:17:14.978Z,100492.56
2022-10-05T05:18:06.809Z,100494.22
2022-10-05T05:18:53.510Z,100504.50
2022-10-05T05:19:40.459Z,100481.09
2022-10-05T05:20:24.198Z,100491.59
2022-10-05T05:21:05.754Z,100494.88
2022-10-05T05:21:49.394Z,100489.50
2022-10-05T05:22:31.779Z,100501.84
2022-10-05T05:23:10.426Z,100490.06
2022-10-05T05:23:53.304Z,100497.06
2022-10-05T05:24:37.239Z,100493.00
2022-10-05T05:25:34.563Z,100490.06
2022-10-05T05:26:14.895Z,100506.16
2022-10-05T05:27:01.337Z,100501.84
2022-10-05T05:27:44.807Z,100511.81
2022-10-05T05:28:29.890Z,100499.97
2022-10-05T05:29:14.891Z,100483.88
2022-10-05T05:29:58.938Z,100525.56
2022-10-05T05:30:41.036Z,100506.50
2022-10-05T05:31:27.025Z,100501.38
2022-10-05T05:32:08.794Z,100501.06
2022-10-05T05:32:50.326Z,100500.06
2022-10-05T05:33:37.822Z,100518.63
2022-10-05T05:34:26.207Z,100507.38
2022-10-05T05:35:17.411Z,100519.75
2022-10-05T05:36:23.430Z,100520.00
2022-10-05T05:37:11.242Z,100524.00
2022-10-05T05:37:53.591Z,100528.06
2022-10-05T05:38:33.143Z,100522.44
2022-10-05T05:39:25.850Z,100523.03
2022-10-05T05:40:07.920Z,100516.25
2022-10-05T05:40:48.106Z,100514.38
2022-10-05T05:41:29.835Z,100524.63
2022-10-05T05:42:17.793Z,100518.53
2022-10-05T05:43:00.736Z,100508.84
2022-10-05T05:43:42.201Z,100514.56
2022-10-05T05:44:26.542Z,100513.22
2022-10-05T05:45:07.585Z,100514.88
2022-10-05T05:45:44.275Z,100526.16
2022-10-05T05:46:51.097Z,100528.63
2022-10-05T05:47:24.564Z,100517.88
2022-10-05T05:48:02.973Z,100512.00
2022-10-05T05:48:40.887Z,100519.56
2022-10-05T05:49:20.152Z,100513.16
2022-10-05T05:50:10.267Z,100520.72
2022-10-05T05:50:55.295Z,100521.53
2022-10-05T05:51:37.405Z,100529.09
2022-10-05T05:52:18.445Z,100526.16
2022-10-05T05:52:55.815Z,100528.03
2022-10-05T05:53:35.378Z,100520.19
2022-10-05T05:54:22.956Z,100522.38
2022-10-05T05:55:02.875Z,100535.81
2022-10-05T05:55:38.665Z,100534.47
2022-10-05T05:56:16.070Z,100535.28
2022-10-05T05:56:53.433Z,100533.13
2022-10-05T05:57:30.027Z,100535.38
2022-10-05T05:58:12.782Z,100541.31
2022-10-05T05:58:51.060Z,100540.25
2022-10-05T05:59:30.630Z,100542.72
2022-10-05T06:00:07.096Z,100534.88
2022-10-05T06:01:02.603Z,100537.00
2022-10-05T06:01:44.343Z,100527.88
2022-10-05T06:02:22.007Z,100525.44
2022-10-05T06:03:03.227Z,100527.53
2022-10-05T06:03:43.441Z,100542.28
2022-10-05T06:04:25.378Z,100539.00
2022-10-05T06:05:03.407Z,100530.13
2022-10-05T06:05:40.793Z,100543.03
2022-10-05T06:06:19.078Z,100537.38
2022-10-05T06:06:57.346Z,100542.44
2022-10-05T06:07:31.516Z,100554.31
2022-10-05T06:08:16.870Z,100531.22
2022-10-05T06:08:53.827Z,100536.25
2022-10-05T06:09:48.890Z,100552.16
2022-10-05T06:10:47.498Z,100540.25
2022-10-05T06:11:26.987Z,100531.16
2022-10-05T06:12:05.047Z,100549.97
2022-10-05T06:12:44.842Z,100552.38
2022-10-05T06:13:22.535Z,100552.72
2022-10-05T06:13:58.111Z,100557.31
2022-10-05T06:14:38.091Z,100553.16
2022-10-05T06:15:23.767Z,100549.72
2022-10-05T06:15:59.973Z,100547.06
2022-10-05T06:16:40.875Z,100543.63
2022-10-05T06:17:18.583Z,100549.34
2022-10-05T06:17:58.914Z,100553.41
2022-10-05T06:18:33.167Z,100548.84
2022-10-05T06:19:16.122Z,100560.97
2022-10-05T06:19:53.373Z,100561.56
2022-10-05T06:20:31.199Z,100557.53
2022-10-05T06:21:14.400Z,100550.28
2022-10-05T06:21:51.616Z,100554.38
2022-10-05T06:22:30.368Z,100565.66
2022-10-05T06:23:12.962Z,100564.38
2022-10-05T06:23:52.009Z,100571.94
2022-10-05T06:24:32.681Z,100576.25
2022-10-05T06:25:17.067Z,100582.19
2022-10-05T06:26:11.105Z,100564.09
2022-10-05T06:27:19.481Z,100553.84
2022-10-05T06:28:12.268Z,100580.44
2022-10-05T06:29:00.922Z,100583.31
2022-10-05T06:29:51.116Z,100588.44
2022-10-05T06:30:24.118Z,100582.00
2022-10-05T06:31:06.942Z,100573.13
2022-10-05T06:31:58.734Z,100568.28
2022-10-05T06:32:37.974Z,100594.94
2022-10-05T06:33:23.153Z,100606.28
2022-10-05T06:34:05.902Z,100581.00
2022-10-05T06:34:56.588Z,100585.00
2022-10-05T06:35:41.461Z,100578.75
2022-10-05T06:36:27.292Z,100577.44
2022-10-05T06:37:02.588Z,100584.19
2022-10-05T06:38:00.609Z,100589.06
2022-10-05T06:38:59.913Z,100580.44
2022-10-05T06:40:03.311Z,100588.50
2022-10-05T06:40:53.231Z,100583.94
2022-10-05T06:41:42.178Z,100583.69
2022-10-05T06:42:34.359Z,100586.38
2022-10-05T06:43:49.365Z,100582.56
2022-10-05T06:44:48.003Z,100586.63
2022-10-05T06:45:54.821Z,100589.06
2022-10-05T06:46:40.481Z,100582.63
2022-10-05T06:47:52.706Z,100585.31
2022-10-05T06:49:11.822Z,100585.31
2022-10-05T06:50:04.318Z,100594.50
2022-10-05T06:50:50.558Z,100577.31
2022-10-05T06:51:38.884Z,100593.22
2022-10-05T06:52:25.911Z,100599.41
2022-10-05T06:53:09.185Z,100588.09
2022-10-05T06:53:50.828Z,100585.16
2022-10-05T06:54:48.557Z,100590.78
2022-10-05T06:55:30.298Z,100594.03
2022-10-05T06:56:08.365Z,100590.25
2022-10-05T06:56:48.652Z,100580.31
2022-10-05T06:57:38.376Z,100583.81
2022-10-05T06:58:33.408Z,100578.44
2022-10-05T06:59:10.303Z,100594.28
2022-10-05T06:59:52.819Z,100587.03
2022-10-05T07:00:28.248Z,100589.78
2022-10-05T07:01:10.813Z,100592.50
2022-10-05T07:01:54.042Z,100582.31
2022-10-05T07:02:33.101Z,100582.09
2022-10-05T07:03:15.022Z,100588.22
2022-10-05T07:04:06.280Z,100592.78
2022-10-05T07:04:55.738Z,100594.91
2022-10-05T07:05:53.407Z,100593.25
2022-10-05T07:06:37.724Z,100598.91
2022-10-05T07:07:19.788Z,100606.72
2022-10-05T07:07:56.458Z,100603.78
2022-10-05T07:08:41.655Z,100598.97
2022-10-05T07:09:28.522Z,100594.41
2022-10-05T07:10:19.779Z,100608.41
2022-10-05T07:11:04.829Z,100616.78
2022-10-05T07:12:04.554Z,100607.66
2022-10-05T07:12:52.613Z,100609.59
2022-10-05T07:13:43.121Z,100607.56
2022-10-05T07:14:32.068Z,100606.78
2022-10-05T07:15:24.127Z,100603.91
2022-10-05T07:16:05.143Z,100601.53
2022-10-05T07:16:49.653Z,100602.41
2022-10-05T07:17:37.389Z,100600.84
2022-10-05T07:18:32.187Z,100601.72
2022-10-05T07:19:21.751Z,100604.94
2022-10-05T07:20:02.198Z,100623.25
2022-10-05T07:20:49.351Z,100622.69
2022-10-05T07:21:35.858Z,100603.22
2022-10-05T07:22:33.417Z,100598.59
2022-10-05T07:23:22.995Z,100617.94
2022-10-05T07:24:07.229Z,100599.91
2022-10-05T07:24:43.050Z,100597.72
2022-10-05T07:25:20.553Z,100612.22
2022-10-05T07:26:06.726Z,100605.25
2022-10-05T07:26:44.035Z,100612.22
2022-10-05T07:27:22.420Z,100615.50
2022-10-05T07:28:00.890Z,100620.63
2022-10-05T07:28:44.133Z,100608.47
2022-10-05T07:29:23.818Z,100614.44
2022-10-05T07:30:04.971Z,100610.41
2022-10-05T07:30:47.649Z,100611.25
2022-10-05T07:31:32.517Z,100604.53
2022-10-05T07:32:14.642Z,100612.34
2022-10-05T07:33:00.195Z,100625.56
2022-10-05T07:33:40.281Z,100619.69
2022-10-05T07:34:18.880Z,100639.41
2022-10-05T07:35:01.652Z,100629.25
2022-10-05T07:36:00.801Z,100614.47
2022-10-05T07:36:58.965Z,100635.19
2022-10-05T07:37:57.959Z,100638.72
2022-10-05T07:38:43.565Z,100632.50
2022-10-05T07:39:42.092Z,100641.66
2022-10-05T07:40:24.700Z,100627.13
2022-10-05T07:41:06.184Z,100645.47
2022-10-05T07:41:44.177Z,100635.81
2022-10-05T07:42:25.096Z,100633.69
2022-10-05T07:43:16.703Z,100650.38
2022-10-05T07:44:02.376Z,100649.63
2022-10-05T07:44:45.566Z,100658.53
2022-10-05T07:45:27.979Z,100651.56
2022-10-05T07:46:12.701Z,100647.81
2022-10-05T07:46:53.602Z,100652.13
2022-10-05T07:47:35.698Z,100647.88
2022-10-05T07:48:18.480Z,100645.72
2022-10-05T07:49:03.412Z,100634.94
2022-10-05T07:49:48.568Z,100634.47
2022-10-05T07:50:26.786Z,100645.53
2022-10-05T07:51:09.056Z,100649.59
2022-10-05T07:51:48.477Z,100653.91
2022-10-05T07:52:32.378Z,100641.00
2022-10-05T07:53:15.732Z,100640.19
2022-10-05T07:53:55.813Z,100632.94
2022-10-05T07:54:38.050Z,100646.13
2022-10-05T07:55:21.872Z,100650.72
2022-10-05T07:56:00.378Z,100644.00
2022-10-05T07:56:43.521Z,100643.75
2022-10-05T07:57:24.538Z,100657.56
2022-10-05T07:58:08.815Z,100659.97
2022-10-05T07:58:44.433Z,100633.84
2022-10-05T07:59:28.335Z,100654.34
2022-10-05T08:00:04.479Z,100650.84
2022-10-05T08:01:06.548Z,100648.13
2022-10-05T08:01:44.762Z,100635.72
2022-10-05T08:02:27.359Z,100631.97
2022-10-05T08:03:08.038Z,100634.34
2022-10-05T08:03:52.383Z,100634.34
2022-10-05T08:04:28.525Z,100633.84
2022-10-05T08:05:07.315Z,100648.72
2022-10-05T08:05:42.567Z,100657.63
2022-10-05T08:06:29.248Z,100649.53
2022-10-05T08:07:09.812Z,100627.16
2022-10-05T08:07:42.342Z,100641.97